sensor_id;sensor_type;location;lat;lon;timestamp;pressure;altitude;pressure_sealevel;temperature;humidity
56681;BME280;42558;52.388;13.390;2024-02-21T00:01:48;101627.63;;;6.36;100.00
56681;BME280;42558;52.388;13.390;2024-02-21T00:04:18;101618.98;;;6.34;100.00
56681;BME280;42558;52.388;13.390;2024-02-21T00:06:48;101616.56;;;6.35;100.00
56681;BME280;42558;52.388;13.390;2024-02-21T00:09:18;101615.73;;;6.36;100.00
56681;BME280;42558;52.388;13.390;2024-02-21T00:11:49;101612.67;;;6.34;100.00
56681;BME280;42558;52.388;13.390;2024-02-21T00:14:19;101609.46;;;6.32;100.00
56681;BME280;42558;52.388;13.390;2024-02-21T00:16:49;101610.05;;;6.33;100.00
56681;BME280;42558;52.388;13.390;2024-02-21T00:19:19;101602.98;;;6.32;100.00
56681;BME280;42558;52.388;13.390;2024-02-21T00:21:49;101598.97;;;6.32;100.00
56681;BME280;42558;52.388;13.390;2024-02-21T00:24:19;101599.02;;;6.33;100.00
56681;BME280;42558;52.388;13.390;2024-02-21T00:26:49;101597.34;;;6.30;100.00
56681;BME280;42558;52.388;13.390;2024-02-21T00:29:19;101597.34;;;6.35;100.00
56681;BME280;42558;52.388;13.390;2024-02-21T00:31:49;101597.27;;;6.36;100.00
56681;BME280;42558;52.388;13.390;2024-02-21T00:34:20;101591.12;;;6.32;100.00
56681;BME280;42558;52.388;13.390;2024-02-21T00:36:51;101590.86;;;6.30;100.00
56681;BME280;42558;52.388;13.390;2024-02-21T00:39:20;101591.02;;;6.29;100.00
56681;BME280;42558;52.388;13.390;2024-02-21T00:41:49;101588.62;;;6.30;100.00
56681;BME280;42558;52.388;13.390;2024-02-21T00:44:19;101587.98;;;6.32;100.00
56681;BME280;42558;52.388;13.390;2024-02-21T00:46:47;101582.26;;;6.33;100.00
56681;BME280;42558;52.388;13.390;2024-02-21T00:49:15;101581.66;;;6.35;100.00
56681;BME280;42558;52.388;13.390;2024-02-21T00:51:42;101579.87;;;6.38;100.00
56681;BME280;42558;52.388;13.390;2024-02-21T00:54:11;101573.07;;;6.38;100.00
56681;BME280;42558;52.388;13.390;2024-02-21T00:56:41;101571.95;;;6.41;100.00
56681;BME280;42558;52.388;13.390;2024-02-21T00:59:09;101571.39;;;6.44;100.00
56681;BME280;42558;52.388;13.390;2024-02-21T01:01:39;101573.98;;;6.43;100.00
56681;BME280;42558;52.388;13.390;2024-02-21T01:04:12;101574.05;;;6.41;100.00
56681;BME280;42558;52.388;13.390;2024-02-21T01:06:43;101567.21;;;6.40;100.00
56681;BME280;42558;52.388;13.390;2024-02-21T01:09:13;101565.64;;;6.40;100.00
56681;BME280;42558;52.388;13.390;2024-02-21T01:11:44;101563.24;;;6.45;100.00
56681;BME280;42558;52.388;13.390;2024-02-21T01:14:14;101556.25;;;6.45;100.00
56681;BME280;42558;52.388;13.390;2024-02-21T01:16:43;101557.61;;;6.44;100.00
56681;BME280;42558;52.388;13.390;2024-02-21T01:19:13;101554.75;;;6.47;100.00
56681;BME280;42558;52.388;13.390;2024-02-21T01:21:43;101549.20;;;6.48;100.00
56681;BME280;42558;52.388;13.390;2024-02-21T01:24:13;101549.67;;;6.51;100.00
56681;BME280;42558;52.388;13.390;2024-02-21T01:26:44;101546.48;;;6.54;100.00
56681;BME280;42558;52.388;13.390;2024-02-21T01:29:13;101547.02;;;6.54;100.00
56681;BME280;42558;52.388;13.390;2024-02-21T01:31:44;101544.05;;;6.54;100.00
56681;BME280;42558;52.388;13.390;2024-02-21T01:34:14;101540.93;;;6.54;100.00
56681;BME280;42558;52.388;13.390;2024-02-21T01:36:44;101539.69;;;6.58;100.00
56681;BME280;42558;52.388;13.390;2024-02-21T01:39:14;101533.78;;;6.59;100.00
56681;BME280;42558;52.388;13.390;2024-02-21T01:41:43;101532.46;;;6.61;100.00
56681;BME280;42558;52.388;13.390;2024-02-21T01:44:14;101529.09;;;6.63;100.00
56681;BME280;42558;52.388;13.390;2024-02-21T01:46:43;101529.38;;;6.62;100.00
56681;BME280;42558;52.388;13.390;2024-02-21T01:49:13;101525.63;;;6.64;100.00
56681;BME280;42558;52.388;13.390;2024-02-21T01:51:44;101523.70;;;6.68;100.00
56681;BME280;42558;52.388;13.390;2024-02-21T01:54:16;101525.73;;;6.67;100.00
56681;BME280;42558;52.388;13.390;2024-02-21T01:56:47;101520.30;;;6.70;100.00
56681;BME280;42558;52.388;13.390;2024-02-21T01:59:18;101517.58;;;6.72;100.00
56681;BME280;42558;52.388;13.390;2024-02-21T02:01:51;101516.56;;;6.73;100.00
56681;BME280;42558;52.388;13.390;2024-02-21T02:04:22;101516.86;;;6.72;100.00
56681;BME280;42558;52.388;13.390;2024-02-21T02:06:54;101508.02;;;6.69;100.00
56681;BME280;42558;52.388;13.390;2024-02-21T02:09:25;101509.91;;;6.69;100.00
56681;BME280;42558;52.388;13.390;2024-02-21T02:11:55;101508.36;;;6.69;100.00
56681;BME280;42558;52.388;13.390;2024-02-21T02:14:25;101505.40;;;6.65;100.00
56681;BME280;42558;52.388;13.390;2024-02-21T02:16:55;101502.06;;;6.65;100.00
56681;BME280;42558;52.388;13.390;2024-02-21T02:19:25;101499.08;;;6.60;100.00
56681;BME280;42558;52.388;13.390;2024-02-21T02:22:06;101498.57;;;6.52;100.00
56681;BME280;42558;52.388;13.390;2024-02-21T02:24:39;101495.04;;;6.43;100.00
56681;BME280;42558;52.388;13.390;2024-02-21T02:27:09;101496.06;;;6.39;100.00
56681;BME280;42558;52.388;13.390;2024-02-21T02:29:39;101494.23;;;6.33;100.00
56681;BME280;42558;52.388;13.390;2024-02-21T02:32:09;101497.45;;;6.30;100.00
56681;BME280;42558;52.388;13.390;2024-02-21T02:34:38;101494.59;;;6.28;100.00
56681;BME280;42558;52.388;13.390;2024-02-21T02:37:08;101491.67;;;6.26;100.00
56681;BME280;42558;52.388;13.390;2024-02-21T02:39:38;101491.08;;;6.23;100.00
56681;BME280;42558;52.388;13.390;2024-02-21T02:42:08;101485.48;;;6.23;100.00
56681;BME280;42558;52.388;13.390;2024-02-21T02:44:38;101484.13;;;6.21;100.00
56681;BME280;42558;52.388;13.390;2024-02-21T02:47:09;101480.73;;;6.19;100.00
56681;BME280;42558;52.388;13.390;2024-02-21T02:49:39;101484.77;;;6.19;100.00
56681;BME280;42558;52.388;13.390;2024-02-21T02:52:09;101482.60;;;6.17;100.00
56681;BME280;42558;52.388;13.390;2024-02-21T02:54:38;101481.84;;;6.16;100.00
56681;BME280;42558;52.388;13.390;2024-02-21T02:57:08;101481.60;;;6.14;100.00
56681;BME280;42558;52.388;13.390;2024-02-21T02:59:36;101478.13;;;6.11;100.00
56681;BME280;42558;52.388;13.390;2024-02-21T03:02:06;101480.81;;;6.08;100.00
56681;BME280;42558;52.388;13.390;2024-02-21T03:04:34;101474.85;;;6.08;100.00
56681;BME280;42558;52.388;13.390;2024-02-21T03:07:03;101477.13;;;6.08;100.00
56681;BME280;42558;52.388;13.390;2024-02-21T03:09:32;101465.94;;;6.08;100.00
56681;BME280;42558;52.388;13.390;2024-02-21T03:12:01;101463.27;;;6.07;100.00
56681;BME280;42558;52.388;13.390;2024-02-21T03:14:33;101461.00;;;6.07;100.00
56681;BME280;42558;52.388;13.390;2024-02-21T03:17:03;101456.84;;;6.07;100.00
56681;BME280;42558;52.388;13.390;2024-02-21T03:19:34;101447.67;;;6.09;100.00
56681;BME280;42558;52.388;13.390;2024-02-21T03:22:04;101446.98;;;6.09;100.00
56681;BME280;42558;52.388;13.390;2024-02-21T03:24:35;101447.80;;;6.08;100.00
56681;BME280;42558;52.388;13.390;2024-02-21T03:27:05;101446.99;;;6.06;100.00
56681;BME280;42558;52.388;13.390;2024-02-21T03:29:35;101442.20;;;6.04;100.00
56681;BME280;42558;52.388;13.390;2024-02-21T03:32:05;101440.08;;;6.03;100.00
56681;BME280;42558;52.388;13.390;2024-02-21T03:34:35;101440.79;;;6.03;100.00
56681;BME280;42558;52.388;13.390;2024-02-21T03:37:05;101442.46;;;6.01;100.00
56681;BME280;42558;52.388;13.390;2024-02-21T03:39:35;101448.21;;;6.01;100.00
56681;BME280;42558;52.388;13.390;2024-02-21T03:42:05;101443.45;;;6.00;100.00
56681;BME280;42558;52.388;13.390;2024-02-21T03:44:36;101443.46;;;5.96;100.00
56681;BME280;42558;52.388;13.390;2024-02-21T03:47:06;101445.66;;;5.95;100.00
56681;BME280;42558;52.388;13.390;2024-02-21T03:49:36;101446.10;;;5.93;100.00
56681;BME280;42558;52.388;13.390;2024-02-21T03:52:06;101438.52;;;5.91;100.00
56681;BME280;42558;52.388;13.390;2024-02-21T03:54:37;101434.66;;;5.91;100.00
56681;BME280;42558;52.388;13.390;2024-02-21T03:57:07;101429.02;;;5.90;100.00
56681;BME280;42558;52.388;13.390;2024-02-21T03:59:37;101430.14;;;5.91;100.00
56681;BME280;42558;52.388;13.390;2024-02-21T04:02:13;101423.51;;;5.88;100.00
56681;BME280;42558;52.388;13.390;2024-02-21T04:04:44;101419.28;;;5.87;100.00
56681;BME280;42558;52.388;13.390;2024-02-21T04:07:18;101415.79;;;5.87;100.00
56681;BME280;42558;52.388;13.390;2024-02-21T04:09:48;101417.43;;;5.84;100.00
56681;BME280;42558;52.388;13.390;2024-02-21T04:12:18;101419.92;;;5.86;100.00
56681;BME280;42558;52.388;13.390;2024-02-21T04:14:48;101415.89;;;5.85;100.00
56681;BME280;42558;52.388;13.390;2024-02-21T04:17:18;101413.39;;;5.84;100.00
56681;BME280;42558;52.388;13.390;2024-02-21T04:19:48;101411.66;;;5.84;100.00
56681;BME280;42558;52.388;13.390;2024-02-21T04:22:18;101406.65;;;5.86;100.00
56681;BME280;42558;52.388;13.390;2024-02-21T04:24:48;101395.64;;;5.85;100.00
56681;BME280;42558;52.388;13.390;2024-02-21T04:27:18;101385.30;;;5.84;100.00
56681;BME280;42558;52.388;13.390;2024-02-21T04:29:47;101386.91;;;5.85;100.00
56681;BME280;42558;52.388;13.390;2024-02-21T04:32:17;101380.42;;;5.84;100.00
56681;BME280;42558;52.388;13.390;2024-02-21T04:34:47;101371.33;;;5.84;100.00
56681;BME280;42558;52.388;13.390;2024-02-21T04:37:17;101366.10;;;5.84;100.00
56681;BME280;42558;52.388;13.390;2024-02-21T04:39:48;101363.72;;;5.81;100.00
56681;BME280;42558;52.388;13.390;2024-02-21T04:42:18;101359.77;;;5.83;100.00
56681;BME280;42558;52.388;13.390;2024-02-21T04:44:48;101348.95;;;5.82;100.00
56681;BME280;42558;52.388;13.390;2024-02-21T04:47:19;101343.60;;;5.80;100.00
56681;BME280;42558;52.388;13.390;2024-02-21T04:49:49;101333.42;;;5.79;100.00
56681;BME280;42558;52.388;13.390;2024-02-21T04:52:19;101328.81;;;5.77;100.00
56681;BME280;42558;52.388;13.390;2024-02-21T04:54:49;101331.48;;;5.78;100.00
56681;BME280;42558;52.388;13.390;2024-02-21T04:57:19;101331.11;;;5.77;100.00
56681;BME280;42558;52.388;13.390;2024-02-21T04:59:49;101327.34;;;5.75;100.00
56681;BME280;42558;52.388;13.390;2024-02-21T05:02:19;101328.55;;;5.75;100.00
56681;BME280;42558;52.388;13.390;2024-02-21T05:04:52;101323.05;;;5.72;100.00
56681;BME280;42558;52.388;13.390;2024-02-21T05:07:23;101317.95;;;5.71;100.00
56681;BME280;42558;52.388;13.390;2024-02-21T05:09:52;101315.16;;;5.71;100.00
56681;BME280;42558;52.388;13.390;2024-02-21T05:12:22;101317.97;;;5.71;100.00
56681;BME280;42558;52.388;13.390;2024-02-21T05:14:52;101318.33;;;5.72;100.00
56681;BME280;42558;52.388;13.390;2024-02-21T05:17:22;101320.23;;;5.71;100.00
56681;BME280;42558;52.388;13.390;2024-02-21T05:19:52;101322.86;;;5.72;100.00
56681;BME280;42558;52.388;13.390;2024-02-21T05:22:20;101322.23;;;5.69;100.00
56681;BME280;42558;52.388;13.390;2024-02-21T05:24:49;101327.92;;;5.71;100.00
56681;BME280;42558;52.388;13.390;2024-02-21T05:27:19;101318.30;;;5.71;100.00
56681;BME280;42558;52.388;13.390;2024-02-21T05:29:47;101316.05;;;5.71;100.00
56681;BME280;42558;52.388;13.390;2024-02-21T05:32:18;101318.21;;;5.73;100.00
56681;BME280;42558;52.388;13.390;2024-02-21T05:34:51;101319.47;;;5.74;100.00
56681;BME280;42558;52.388;13.390;2024-02-21T05:37:21;101315.19;;;5.76;100.00
56681;BME280;42558;52.388;13.390;2024-02-21T05:39:49;101314.53;;;5.77;100.00
56681;BME280;42558;52.388;13.390;2024-02-21T05:42:18;101318.44;;;5.79;100.00
56681;BME280;42558;52.388;13.390;2024-02-21T05:44:46;101320.95;;;5.81;100.00
56681;BME280;42558;52.388;13.390;2024-02-21T05:47:14;101324.13;;;5.82;100.00
56681;BME280;42558;52.388;13.390;2024-02-21T05:49:43;101326.95;;;5.87;100.00
56681;BME280;42558;52.388;13.390;2024-02-21T05:52:11;101320.15;;;5.87;100.00
56681;BME280;42558;52.388;13.390;2024-02-21T05:54:40;101321.91;;;5.87;100.00
56681;BME280;42558;52.388;13.390;2024-02-21T05:57:08;101319.48;;;5.88;100.00
56681;BME280;42558;52.388;13.390;2024-02-21T05:59:39;101317.21;;;5.88;100.00
56681;BME280;42558;52.388;13.390;2024-02-21T06:02:11;101314.09;;;5.88;100.00
56681;BME280;42558;52.388;13.390;2024-02-21T06:04:41;101313.67;;;5.90;100.00
56681;BME280;42558;52.388;13.390;2024-02-21T06:07:12;101308.94;;;5.89;100.00
56681;BME280;42558;52.388;13.390;2024-02-21T06:09:43;101313.44;;;5.89;100.00
56681;BME280;42558;52.388;13.390;2024-02-21T06:12:14;101311.76;;;5.90;100.00
56681;BME280;42558;52.388;13.390;2024-02-21T06:14:44;101308.30;;;5.90;100.00
56681;BME280;42558;52.388;13.390;2024-02-21T06:17:14;101308.88;;;5.91;100.00
56681;BME280;42558;52.388;13.390;2024-02-21T06:19:44;101313.66;;;5.93;100.00
56681;BME280;42558;52.388;13.390;2024-02-21T06:22:15;101308.77;;;5.93;100.00
56681;BME280;42558;52.388;13.390;2024-02-21T06:24:45;101310.84;;;5.96;100.00
56681;BME280;42558;52.388;13.390;2024-02-21T06:27:15;101309.95;;;5.96;100.00
56681;BME280;42558;52.388;13.390;2024-02-21T06:29:46;101304.13;;;5.95;100.00
56681;BME280;42558;52.388;13.390;2024-02-21T06:32:16;101299.33;;;5.97;100.00
56681;BME280;42558;52.388;13.390;2024-02-21T06:34:45;101295.84;;;5.97;100.00
56681;BME280;42558;52.388;13.390;2024-02-21T06:37:15;101294.27;;;5.97;100.00
56681;BME280;42558;52.388;13.390;2024-02-21T06:39:45;101301.12;;;5.98;100.00
56681;BME280;42558;52.388;13.390;2024-02-21T06:42:16;101300.87;;;6.01;100.00
56681;BME280;42558;52.388;13.390;2024-02-21T06:44:45;101296.23;;;6.03;100.00
56681;BME280;42558;52.388;13.390;2024-02-21T06:47:15;101299.58;;;6.07;100.00
56681;BME280;42558;52.388;13.390;2024-02-21T06:49:49;101293.41;;;6.06;100.00
56681;BME280;42558;52.388;13.390;2024-02-21T06:52:20;101297.88;;;6.08;100.00
56681;BME280;42558;52.388;13.390;2024-02-21T06:54:50;101290.23;;;6.09;100.00
56681;BME280;42558;52.388;13.390;2024-02-21T06:57:20;101290.09;;;6.10;100.00
56681;BME280;42558;52.388;13.390;2024-02-21T06:59:50;101295.34;;;6.10;100.00
56681;BME280;42558;52.388;13.390;2024-02-21T07:02:20;101298.22;;;6.13;100.00
56681;BME280;42558;52.388;13.390;2024-02-21T07:04:50;101297.59;;;6.14;100.00
56681;BME280;42558;52.388;13.390;2024-02-21T07:07:20;101294.27;;;6.14;100.00
56681;BME280;42558;52.388;13.390;2024-02-21T07:09:50;101297.27;;;6.15;100.00
56681;BME280;42558;52.388;13.390;2024-02-21T07:12:21;101295.69;;;6.19;100.00
56681;BME280;42558;52.388;13.390;2024-02-21T07:14:51;101297.27;;;6.19;100.00
56681;BME280;42558;52.388;13.390;2024-02-21T07:17:21;101296.59;;;6.20;100.00
56681;BME280;42558;52.388;13.390;2024-02-21T07:19:50;101295.75;;;6.21;100.00
56681;BME280;42558;52.388;13.390;2024-02-21T07:22:20;101298.77;;;6.22;100.00
56681;BME280;42558;52.388;13.390;2024-02-21T07:24:50;101296.88;;;6.22;100.00
56681;BME280;42558;52.388;13.390;2024-02-21T07:27:20;101294.11;;;6.23;100.00
56681;BME280;42558;52.388;13.390;2024-02-21T07:29:50;101290.11;;;6.23;100.00
56681;BME280;42558;52.388;13.390;2024-02-21T07:32:20;101293.96;;;6.24;100.00
56681;BME280;42558;52.388;13.390;2024-02-21T07:34:50;101297.53;;;6.26;100.00
56681;BME280;42558;52.388;13.390;2024-02-21T07:37:20;101295.93;;;6.25;100.00
56681;BME280;42558;52.388;13.390;2024-02-21T07:39:50;101292.27;;;6.25;100.00
56681;BME280;42558;52.388;13.390;2024-02-21T07:42:20;101295.83;;;6.27;100.00
56681;BME280;42558;52.388;13.390;2024-02-21T07:44:50;101289.85;;;6.30;100.00
56681;BME280;42558;52.388;13.390;2024-02-21T07:47:19;101284.69;;;6.33;100.00
56681;BME280;42558;52.388;13.390;2024-02-21T07:49:49;101285.36;;;6.36;100.00
56681;BME280;42558;52.388;13.390;2024-02-21T07:52:19;101284.11;;;6.40;100.00
56681;BME280;42558;52.388;13.390;2024-02-21T07:54:47;101284.19;;;6.42;100.00
56681;BME280;42558;52.388;13.390;2024-02-21T07:57:17;101280.95;;;6.40;100.00
56681;BME280;42558;52.388;13.390;2024-02-21T07:59:45;101279.73;;;6.40;100.00
56681;BME280;42558;52.388;13.390;2024-02-21T08:02:17;101272.04;;;6.44;100.00
56681;BME280;42558;52.388;13.390;2024-02-21T08:04:47;101270.77;;;6.48;100.00
56681;BME280;42558;52.388;13.390;2024-02-21T08:07:15;101275.15;;;6.52;100.00
56681;BME280;42558;52.388;13.390;2024-02-21T08:09:43;101271.13;;;6.57;100.00
56681;BME280;42558;52.388;13.390;2024-02-21T08:12:12;101271.70;;;6.58;100.00
56681;BME280;42558;52.388;13.390;2024-02-21T08:14:40;101267.61;;;6.61;100.00
56681;BME280;42558;52.388;13.390;2024-02-21T08:17:09;101268.77;;;6.64;100.00
56681;BME280;42558;52.388;13.390;2024-02-21T08:19:37;101262.86;;;6.64;100.00
56681;BME280;42558;52.388;13.390;2024-02-21T08:22:05;101260.41;;;6.69;100.00
56681;BME280;42558;52.388;13.390;2024-02-21T08:24:34;101253.96;;;6.74;100.00
56681;BME280;42558;52.388;13.390;2024-02-21T08:27:02;101250.27;;;6.78;100.00
56681;BME280;42558;52.388;13.390;2024-02-21T08:29:31;101254.11;;;6.83;100.00
56681;BME280;42558;52.388;13.390;2024-02-21T08:31:59;101253.19;;;6.87;100.00
56681;BME280;42558;52.388;13.390;2024-02-21T08:34:28;101249.61;;;6.89;100.00
56681;BME280;42558;52.388;13.390;2024-02-21T08:37:00;101254.29;;;6.93;100.00
56681;BME280;42558;52.388;13.390;2024-02-21T08:39:27;101253.77;;;6.98;100.00
56681;BME280;42558;52.388;13.390;2024-02-21T08:42:00;101255.42;;;7.05;100.00
56681;BME280;42558;52.388;13.390;2024-02-21T08:44:30;101254.52;;;7.09;100.00
56681;BME280;42558;52.388;13.390;2024-02-21T08:47:00;101247.15;;;7.13;100.00
56681;BME280;42558;52.388;13.390;2024-02-21T08:49:33;101247.52;;;7.19;100.00
56681;BME280;42558;52.388;13.390;2024-02-21T08:52:04;101246.48;;;7.29;100.00
56681;BME280;42558;52.388;13.390;2024-02-21T08:54:35;101250.74;;;7.31;100.00
56681;BME280;42558;52.388;13.390;2024-02-21T08:57:04;101251.13;;;7.27;100.00
56681;BME280;42558;52.388;13.390;2024-02-21T08:59:34;101252.55;;;7.32;100.00
56681;BME280;42558;52.388;13.390;2024-02-21T09:02:04;101254.41;;;7.36;100.00
56681;BME280;42558;52.388;13.390;2024-02-21T09:04:34;101255.81;;;7.46;100.00
56681;BME280;42558;52.388;13.390;2024-02-21T09:07:04;101258.42;;;7.61;100.00
56681;BME280;42558;52.388;13.390;2024-02-21T09:09:35;101257.64;;;7.69;100.00
56681;BME280;42558;52.388;13.390;2024-02-21T09:12:08;101257.37;;;7.71;100.00
56681;BME280;42558;52.388;13.390;2024-02-21T09:14:38;101253.42;;;7.74;100.00
56681;BME280;42558;52.388;13.390;2024-02-21T09:17:10;101254.66;;;7.84;100.00
56681;BME280;42558;52.388;13.390;2024-02-21T09:19:40;101252.84;;;7.88;100.00
56681;BME280;42558;52.388;13.390;2024-02-21T09:22:10;101252.27;;;7.91;100.00
56681;BME280;42558;52.388;13.390;2024-02-21T09:24:40;101253.95;;;7.90;100.00
56681;BME280;42558;52.388;13.390;2024-02-21T09:27:10;101247.39;;;7.99;100.00
56681;BME280;42558;52.388;13.390;2024-02-21T09:29:40;101246.61;;;8.07;100.00
56681;BME280;42558;52.388;13.390;2024-02-21T09:32:10;101239.46;;;8.13;100.00
56681;BME280;42558;52.388;13.390;2024-02-21T09:34:40;101237.63;;;8.16;100.00
56681;BME280;42558;52.388;13.390;2024-02-21T09:37:11;101234.25;;;8.15;100.00
56681;BME280;42558;52.388;13.390;2024-02-21T09:39:41;101230.80;;;8.23;100.00
56681;BME280;42558;52.388;13.390;2024-02-21T09:42:11;101233.16;;;8.30;100.00
56681;BME280;42558;52.388;13.390;2024-02-21T09:44:40;101235.15;;;8.43;100.00
56681;BME280;42558;52.388;13.390;2024-02-21T09:47:22;101231.33;;;8.51;100.00
56681;BME280;42558;52.388;13.390;2024-02-21T09:49:54;101223.18;;;8.54;100.00
56681;BME280;42558;52.388;13.390;2024-02-21T09:52:27;101219.52;;;8.48;100.00
56681;BME280;42558;52.388;13.390;2024-02-21T09:54:58;101214.10;;;8.61;100.00
56681;BME280;42558;52.388;13.390;2024-02-21T09:57:29;101212.61;;;8.70;100.00
56681;BME280;42558;52.388;13.390;2024-02-21T10:00:00;101220.00;;;8.71;100.00
56681;BME280;42558;52.388;13.390;2024-02-21T10:02:40;101226.69;;;8.60;100.00
56681;BME280;42558;52.388;13.390;2024-02-21T10:05:10;101224.91;;;8.53;100.00
56681;BME280;42558;52.388;13.390;2024-02-21T10:07:40;101228.70;;;8.51;100.00
56681;BME280;42558;52.388;13.390;2024-02-21T10:10:10;101228.38;;;8.58;100.00
56681;BME280;42558;52.388;13.390;2024-02-21T10:12:53;101227.25;;;8.66;100.00
56681;BME280;42558;52.388;13.390;2024-02-21T10:15:25;101220.98;;;8.74;100.00
56681;BME280;42558;52.388;13.390;2024-02-21T10:18:00;101218.88;;;8.74;100.00
56681;BME280;42558;52.388;13.390;2024-02-21T10:20:31;101221.95;;;8.78;100.00
56681;BME280;42558;52.388;13.390;2024-02-21T10:23:04;101222.16;;;8.85;100.00
56681;BME280;42558;52.388;13.390;2024-02-21T10:25:38;101221.08;;;8.84;100.00
56681;BME280;42558;52.388;13.390;2024-02-21T10:28:15;101217.84;;;8.81;100.00
56681;BME280;42558;52.388;13.390;2024-02-21T10:30:52;101217.48;;;8.88;100.00
56681;BME280;42558;52.388;13.390;2024-02-21T10:33:22;101222.81;;;8.83;100.00
56681;BME280;42558;52.388;13.390;2024-02-21T10:35:55;101222.70;;;8.79;100.00
56681;BME280;42558;52.388;13.390;2024-02-21T10:38:39;101226.80;;;8.75;100.00
56681;BME280;42558;52.388;13.390;2024-02-21T10:41:14;101220.57;;;8.78;100.00
56681;BME280;42558;52.388;13.390;2024-02-21T10:43:53;101222.48;;;8.84;100.00
56681;BME280;42558;52.388;13.390;2024-02-21T10:46:24;101216.34;;;8.96;100.00
56681;BME280;42558;52.388;13.390;2024-02-21T10:49:15;101212.67;;;8.97;100.00
56681;BME280;42558;52.388;13.390;2024-02-21T10:51:48;101210.55;;;9.16;100.00
56681;BME280;42558;52.388;13.390;2024-02-21T10:54:48;101207.15;;;9.20;100.00
56681;BME280;42558;52.388;13.390;2024-02-21T10:57:25;101204.83;;;9.25;100.00
56681;BME280;42558;52.388;13.390;2024-02-21T10:59:59;101200.75;;;9.04;100.00
56681;BME280;42558;52.388;13.390;2024-02-21T11:02:29;101204.27;;;9.04;100.00
56681;BME280;42558;52.388;13.390;2024-02-21T11:05:03;101200.46;;;9.06;100.00
56681;BME280;42558;52.388;13.390;2024-02-21T11:07:37;101203.55;;;9.10;100.00
56681;BME280;42558;52.388;13.390;2024-02-21T11:10:23;101196.92;;;8.98;100.00
56681;BME280;42558;52.388;13.390;2024-02-21T11:13:14;101195.24;;;8.82;100.00
56681;BME280;42558;52.388;13.390;2024-02-21T11:15:44;101191.14;;;8.73;100.00
56681;BME280;42558;52.388;13.390;2024-02-21T11:18:24;101177.92;;;8.83;100.00
56681;BME280;42558;52.388;13.390;2024-02-21T11:20:54;101170.34;;;8.88;100.00
56681;BME280;42558;52.388;13.390;2024-02-21T11:23:26;101164.30;;;9.12;100.00
56681;BME280;42558;52.388;13.390;2024-02-21T11:26:10;101157.27;;;9.47;100.00
56681;BME280;42558;52.388;13.390;2024-02-21T11:28:40;101148.73;;;9.78;100.00
56681;BME280;42558;52.388;13.390;2024-02-21T11:31:13;101142.61;;;10.11;100.00
56681;BME280;42558;52.388;13.390;2024-02-21T11:33:47;101133.09;;;10.01;100.00
56681;BME280;42558;52.388;13.390;2024-02-21T11:36:27;101131.63;;;9.98;100.00
56681;BME280;42558;52.388;13.390;2024-02-21T11:39:04;101127.76;;;9.75;100.00
56681;BME280;42558;52.388;13.390;2024-02-21T11:41:35;101128.16;;;9.92;100.00
56681;BME280;42558;52.388;13.390;2024-02-21T11:44:05;101113.84;;;10.21;100.00
56681;BME280;42558;52.388;13.390;2024-02-21T11:46:35;101106.88;;;10.08;100.00
56681;BME280;42558;52.388;13.390;2024-02-21T11:49:06;101098.46;;;10.18;100.00
56681;BME280;42558;52.388;13.390;2024-02-21T11:51:36;101095.77;;;10.14;100.00
56681;BME280;42558;52.388;13.390;2024-02-21T11:54:06;101087.31;;;10.29;100.00
56681;BME280;42558;52.388;13.390;2024-02-21T11:56:35;101083.23;;;10.26;100.00
56681;BME280;42558;52.388;13.390;2024-02-21T11:59:05;101075.88;;;10.37;100.00
56681;BME280;42558;52.388;13.390;2024-02-21T12:01:36;101074.14;;;10.66;100.00
56681;BME280;42558;52.388;13.390;2024-02-21T12:04:06;101065.89;;;10.67;100.00
56681;BME280;42558;52.388;13.390;2024-02-21T12:06:36;101062.14;;;10.54;100.00
56681;BME280;42558;52.388;13.390;2024-02-21T12:09:08;101065.54;;;10.57;100.00
56681;BME280;42558;52.388;13.390;2024-02-21T12:11:40;101057.88;;;10.52;100.00
56681;BME280;42558;52.388;13.390;2024-02-21T12:14:10;101052.84;;;10.75;100.00
56681;BME280;42558;52.388;13.390;2024-02-21T12:16:41;101044.60;;;10.76;100.00
56681;BME280;42558;52.388;13.390;2024-02-21T12:19:09;101047.02;;;10.64;100.00
56681;BME280;42558;52.388;13.390;2024-02-21T12:21:39;101046.73;;;10.57;100.00
56681;BME280;42558;52.388;13.390;2024-02-21T12:24:22;101040.81;;;10.51;100.00
56681;BME280;42558;52.388;13.390;2024-02-21T12:26:54;101030.46;;;10.32;100.00
56681;BME280;42558;52.388;13.390;2024-02-21T12:29:25;101028.52;;;10.23;100.00
56681;BME280;42558;52.388;13.390;2024-02-21T12:31:54;101025.55;;;10.17;100.00
56681;BME280;42558;52.388;13.390;2024-02-21T12:34:24;101030.66;;;10.18;100.00
56681;BME280;42558;52.388;13.390;2024-02-21T12:37:12;101022.35;;;10.23;100.00
56681;BME280;42558;52.388;13.390;2024-02-21T12:39:43;101020.78;;;10.06;100.00
56681;BME280;42558;52.388;13.390;2024-02-21T12:42:13;101022.72;;;10.07;100.00
56681;BME280;42558;52.388;13.390;2024-02-21T12:44:43;101022.70;;;10.15;100.00
56681;BME280;42558;52.388;13.390;2024-02-21T12:47:14;101011.74;;;10.20;100.00
56681;BME280;42558;52.388;13.390;2024-02-21T12:49:44;101010.16;;;10.20;100.00
56681;BME280;42558;52.388;13.390;2024-02-21T12:52:15;101013.63;;;10.26;100.00
56681;BME280;42558;52.388;13.390;2024-02-21T12:54:45;101013.17;;;10.21;100.00
56681;BME280;42558;52.388;13.390;2024-02-21T12:57:15;101006.56;;;10.17;100.00